A80 TRACON Summary / KATL TAF
ATL TRACON Summary:
High pressure will continue to dominate the TRACON airspace with VFR conditions under mostly clear skies overnight. Surface winds will be mostly east at 3-6kts and occasionally calm. Flight hazards in the TRACON airspace: None expected.

Updated:9/24/2016 8:06 PM
ATL Terminal Aerodrome Forecast:

FTUS31 KATL 250333 AAA
KATL 250332Z 2504/2606 09003KT P6SM SCT250
     FM251500 09004KT P6SM FEW035
     FM251800 12006KT P6SM SCT050
ATL TRACON Area Remark:
NONE.
Convective Gate Forecast / Collaborative Convective Forecast Product / Vertical Wind Profile
Convective Gate Forecast
AIRMETs & SIGMETS/ Southeast Radar loop / Satellite Image (click on image to enlarge)

Southeast Radar Loop

 



USA.gov is the U.S. government's official web portal to all federal, state and local government web resources and services.